Time;durP1;ratioP1;P1;durP2;ratioP2;P2;SDS_P1;SDS_P2;PMS_P1;PMS_P2;Temp;Humidity;BMP_temperature;BMP_pressure;BME280_temperature;BME280_humidity;BME280_pressure;Samples;Min_cycle;Max_cycle;Signal;HPM_P1;HPM_P2
2022/11/12 00:00:31;;;;;;;0.50;0.50;;;19.80;62.80;;;19.74;45.97;96461.25;4851923;29;20209;-79
2022/11/12 00:03:17;;;;;;;0.40;0.40;;;19.80;62.70;;;19.68;46.46;96453.06;4852007;29;20205;-79
2022/11/12 00:06:03;;;;;;;0.50;0.50;;;19.80;62.70;;;19.65;46.01;96448.19;4839058;29;20652;-79
2022/11/12 00:08:49;;;;;;;0.50;0.50;;;19.80;62.80;;;19.72;46.22;96463.31;4851743;29;20266;-79
2022/11/12 00:11:35;;;;;;;0.40;0.40;;;19.80;62.80;;;19.71;46.27;96465.16;4851757;29;20228;-79
2022/11/12 00:14:21;;;;;;;0.50;0.50;;;19.80;62.70;;;19.66;46.21;96465.81;4851915;29;20202;-79
2022/11/12 00:17:06;;;;;;;0.40;0.40;;;19.80;62.70;;;19.70;46.17;96460.88;4851722;29;20263;-79
2022/11/12 00:19:52;;;;;;;0.40;0.40;;;19.80;62.70;;;19.71;45.95;96459.00;4851644;29;20202;-79
2022/11/12 00:22:38;;;;;;;0.50;0.50;;;19.80;62.70;;;19.71;45.84;96456.34;4839125;29;20242;-79
2022/11/12 00:25:24;;;;;;;0.50;0.50;;;19.80;62.70;;;19.66;46.27;96449.00;4851588;29;20601;-79
2022/11/12 00:28:10;;;;;;;0.50;0.50;;;19.80;62.70;;;19.72;46.06;96456.13;4864331;29;20201;-79
2022/11/12 00:30:55;;;;;;;0.50;0.50;;;19.80;62.80;;;19.68;46.05;96444.28;4838658;29;20641;-79
2022/11/12 00:33:42;;;;;;;0.50;0.50;;;19.80;62.70;;;19.66;46.15;96443.66;4851823;29;20201;-79
2022/11/12 00:36:28;;;;;;;0.50;0.50;;;19.80;62.70;;;19.68;46.17;96444.28;4841938;29;20315;-79
2022/11/12 00:39:13;;;;;;;0.50;0.50;;;19.80;62.80;;;19.68;45.86;96446.94;4845794;29;20752;-79
2022/11/12 00:42:00;;;;;;;0.50;0.50;;;19.80;62.70;;;19.71;45.69;96445.72;4832956;29;20331;-79
2022/11/12 00:44:45;;;;;;;0.40;0.40;;;19.80;62.80;;;19.70;46.41;96447.56;4833132;29;20700;-79
2022/11/12 00:47:31;;;;;;;0.40;0.40;;;19.70;62.70;;;19.65;45.96;96436.72;4845382;29;20239;-79
2022/11/12 00:50:17;;;;;;;0.50;0.50;;;19.80;62.70;;;19.66;46.07;96441.84;4846466;29;20213;-79
2022/11/12 00:53:02;;;;;;;0.40;0.40;;;19.80;62.70;;;19.71;46.00;96456.34;4845368;29;20221;-79
2022/11/12 00:55:48;;;;;;;0.50;0.50;;;19.70;62.60;;;19.66;46.20;96441.00;4845221;29;20206;-79
2022/11/12 00:58:35;;;;;;;0.40;0.40;;;19.80;62.70;;;19.69;46.10;96451.25;4845071;29;20202;-79
2022/11/12 01:01:21;;;;;;;0.50;0.50;;;19.80;62.70;;;19.67;45.99;96434.66;4845702;29;20206;-79
2022/11/12 01:04:07;;;;;;;0.50;0.50;;;19.80;62.70;;;19.65;45.85;96442.03;4845012;29;20202;-79
2022/11/12 01:06:53;;;;;;;0.60;0.60;;;19.70;62.60;;;19.66;46.14;96446.34;4819418;29;20211;-79
2022/11/12 01:09:39;;;;;;;0.47;0.47;;;19.80;62.70;;;19.68;45.92;96447.75;4845334;29;20198;-79
2022/11/12 01:12:24;;;;;;;0.40;0.40;;;19.80;62.70;;;19.63;46.02;96434.28;4845261;29;20221;-79
2022/11/12 01:15:10;;;;;;;0.60;0.60;;;19.70;62.60;;;19.65;45.99;96440.22;4845335;29;20236;-79
2022/11/12 01:17:56;;;;;;;0.50;0.50;;;19.70;62.60;;;19.64;45.94;96433.25;4832369;29;20222;-79
2022/11/12 01:20:42;;;;;;;0.50;0.50;;;19.70;62.60;;;19.68;45.91;96441.63;4845195;29;20218;-79
2022/11/12 01:23:27;;;;;;;0.50;0.50;;;19.70;62.60;;;19.63;45.71;96433.47;4832266;29;20255;-79
2022/11/12 01:26:21;;;;;;;0.60;0.60;;;19.70;63.50;;;19.65;46.32;96436.72;4832631;29;20198;-79
2022/11/12 01:29:07;;;;;;;0.50;0.50;;;19.70;62.60;;;19.65;45.97;96434.88;4819776;29;20209;-79
2022/11/12 01:31:53;;;;;;;0.50;0.50;;;19.70;62.60;;;19.65;46.22;96426.91;4819431;29;20731;-79
2022/11/12 01:34:39;;;;;;;0.50;0.50;;;19.70;62.60;;;19.64;45.91;96432.41;4844781;29;20202;-79
2022/11/12 01:37:24;;;;;;;0.50;0.50;;;19.70;62.60;;;19.61;46.15;96417.69;4831789;29;20299;-79
2022/11/12 01:40:10;;;;;;;0.50;0.50;;;19.70;62.70;;;19.60;46.16;96415.25;4831940;29;20562;-79
2022/11/12 01:42:56;;;;;;;0.50;0.50;;;19.70;62.60;;;19.62;45.92;96416.66;4844519;29;20291;-79
2022/11/12 01:45:48;;;;;;;0.50;0.50;;;19.70;62.60;;;19.64;46.34;96413.78;4844987;29;20201;-79
2022/11/12 01:48:40;;;;;;;0.50;0.50;;;19.70;62.60;;;19.63;45.79;96428.94;4831705;29;20214;-79
2022/11/12 01:51:33;;;;;;;0.45;0.45;;;19.70;62.60;;;19.64;45.91;96413.78;4831767;29;20202;-79
2022/11/12 01:54:20;;;;;;;0.50;0.50;;;19.70;62.60;;;19.62;46.03;96415.84;4831882;29;20320;-79
2022/11/12 01:57:09;;;;;;;0.50;0.50;;;19.70;62.60;;;19.63;46.18;96412.16;4845086;29;20550;-79
2022/11/12 02:00:00;;;;;;;0.40;0.40;;;19.70;62.60;;;19.63;46.31;96406.84;4832039;29;20199;-78
2022/11/12 02:02:54;;;;;;;0.50;0.50;;;19.70;62.60;;;19.62;46.01;96407.88;4831368;29;20206;-78
2022/11/12 02:05:41;;;;;;;0.50;0.50;;;19.70;62.60;;;19.64;46.27;96419.09;4844349;29;20638;-79
2022/11/12 02:08:29;;;;;;;0.30;0.30;;;19.70;62.60;;;19.60;46.13;96410.72;4831380;29;20283;-79
2022/11/12 02:11:20;;;;;;;0.50;0.50;;;19.70;62.60;;;19.60;46.13;96404.59;4843868;29;20695;-79
2022/11/12 02:14:06;;;;;;;0.40;0.40;;;19.70;62.60;;;19.57;46.07;96395.19;4831650;29;20197;-79
2022/11/12 02:16:52;;;;;;;0.50;0.50;;;19.70;62.60;;;19.55;46.30;96393.78;4831239;29;20202;-79
2022/11/12 02:19:38;;;;;;;0.40;0.40;;;19.70;62.60;;;19.60;46.03;96409.91;4831420;29;20198;-79
2022/11/12 02:22:24;;;;;;;0.40;0.40;;;19.70;62.60;;;19.60;46.14;96404.59;4831604;29;20262;-79
2022/11/12 02:25:18;;;;;;;0.43;0.43;;;19.70;62.70;;;19.59;45.80;96400.28;4831162;29;20228;-79
2022/11/12 02:28:07;;;;;;;0.50;0.50;;;19.70;62.60;;;19.56;46.23;96392.75;4831511;29;20261;-79
2022/11/12 02:30:53;;;;;;;0.40;0.40;;;19.70;62.60;;;19.55;45.83;96393.78;4831166;29;20205;-78
2022/11/12 02:33:38;;;;;;;0.47;0.47;;;19.70;62.60;;;19.56;46.06;96401.53;4844093;29;20221;-79
2022/11/12 02:36:24;;;;;;;0.40;0.40;;;19.60;62.60;;;19.58;46.18;96404.81;4843708;29;20245;-79
2022/11/12 02:39:09;;;;;;;0.52;0.52;;;19.70;62.60;;;19.58;46.15;96403.97;4831280;29;20195;-79
2022/11/12 02:41:56;;;;;;;0.50;0.50;;;19.70;63.60;;;19.58;45.80;96404.81;4843903;29;20587;-79
2022/11/12 02:44:41;;;;;;;0.50;0.50;;;19.60;62.60;;;19.58;45.92;96402.16;4831219;29;20245;-79
2022/11/12 02:47:28;;;;;;;0.50;0.50;;;19.70;62.60;;;19.57;46.12;96397.06;4844101;29;20250;-79
2022/11/12 02:50:14;;;;;;;0.40;0.40;;;19.60;62.60;;;19.56;46.06;96398.88;4843679;29;20205;-79
2022/11/12 02:52:59;;;;;;;0.50;0.50;;;19.70;62.70;;;19.55;45.75;96399.91;4817878;29;20222;-78
2022/11/12 02:55:45;;;;;;;0.50;0.50;;;19.60;62.60;;;19.58;46.16;96409.31;4843936;29;20198;-79
2022/11/12 02:58:31;;;;;;;0.50;0.50;;;19.60;62.60;;;19.52;45.87;96397.69;4843726;29;20534;-79
2022/11/12 03:01:17;;;;;;;0.40;0.40;;;19.60;62.60;;;19.54;46.29;96405.44;4830971;29;20206;-79
2022/11/12 03:04:03;;;;;;;0.40;0.40;;;19.60;62.60;;;19.55;46.02;96415.06;4831112;29;20539;-79
2022/11/12 03:06:48;;;;;;;0.50;0.50;;;19.60;62.60;;;19.56;46.26;96406.06;4843496;29;20768;-79
2022/11/12 03:09:34;;;;;;;0.50;0.50;;;19.60;62.60;;;19.55;46.13;96415.06;4843456;29;20201;-79
2022/11/12 03:12:20;;;;;;;0.50;0.50;;;19.60;62.60;;;19.56;46.16;96412.19;4830719;29;20563;-79
2022/11/12 03:15:06;;;;;;;0.50;0.50;;;19.60;62.60;;;19.54;45.78;96413.44;4830906;29;20209;-78
2022/11/12 03:17:51;;;;;;;0.50;0.50;;;19.60;62.50;;;19.52;45.86;96403.81;4830602;29;20355;-78
2022/11/12 03:20:37;;;;;;;0.40;0.40;;;19.60;62.60;;;19.48;45.90;96404.44;4830791;29;20267;-79
2022/11/12 03:23:26;;;;;;;0.50;0.50;;;19.60;62.50;;;19.56;45.93;96416.72;4843471;29;20343;-79
2022/11/12 03:26:11;;;;;;;0.40;0.40;;;19.60;62.60;;;19.54;45.80;96416.09;4843994;29;20344;-79
2022/11/12 03:28:57;;;;;;;0.50;0.50;;;19.60;62.60;;;19.55;46.19;96405.22;4831883;29;20198;-80
2022/11/12 03:31:43;;;;;;;0.50;0.50;;;19.60;62.60;;;19.56;45.88;96406.88;4847357;29;20198;-80
2022/11/12 03:34:28;;;;;;;0.50;0.50;;;19.60;62.50;;;19.51;46.09;96396.84;4847951;29;20323;-79
2022/11/12 03:37:14;;;;;;;0.50;0.50;;;19.60;62.60;;;19.51;45.80;96398.72;4833944;29;20688;-79
2022/11/12 03:40:00;;;;;;;0.50;0.50;;;19.60;62.60;;;19.52;46.40;96400.34;4847102;29;20198;-79
2022/11/12 03:42:48;;;;;;;0.50;0.50;;;19.60;62.60;;;19.52;46.09;96395.03;4847057;29;20225;-79
2022/11/12 03:45:33;;;;;;;0.55;0.55;;;19.60;62.60;;;19.49;46.23;96388.28;4821629;29;20536;-79
2022/11/12 03:48:19;;;;;;;0.50;0.50;;;19.60;62.50;;;19.50;45.72;96392.56;4833986;29;20206;-79
2022/11/12 03:51:05;;;;;;;0.43;0.43;;;19.60;62.50;;;19.52;46.06;96390.50;4847001;29;20324;-79
2022/11/12 03:53:50;;;;;;;0.40;0.40;;;19.60;62.50;;;19.54;45.88;96395.59;4834041;29;20226;-79
2022/11/12 03:56:36;;;;;;;0.50;0.50;;;19.60;62.60;;;19.51;45.96;96382.75;4833785;29;20202;-79
2022/11/12 03:59:22;;;;;;;0.50;0.50;;;19.60;62.50;;;19.52;45.88;96384.38;4846849;29;20514;-79
2022/11/12 04:02:13;;;;;;;0.43;0.43;;;19.60;62.60;;;19.50;46.27;96375.78;4847408;29;20355;-80
2022/11/12 04:11:19;;;;;;;0.50;0.50;;;19.60;63.50;;;19.46;45.86;96366.59;4836162;29;20328;-79
2022/11/12 04:14:05;;;;;;;0.50;0.50;;;19.60;62.50;;;19.48;46.01;96370.69;4833318;29;20225;-79
2022/11/12 04:22:59;;;;;;;0.52;0.52;;;19.60;62.60;;;19.38;45.79;96362.31;4835807;29;20205;-80
2022/11/12 04:26:31;;;;;;;0.50;0.50;;;19.60;62.60;;;19.46;45.83;96367.41;4846287;29;20263;-80
2022/11/12 04:31:55;;;;;;;0.50;0.50;;;19.60;62.60;;;19.46;45.99;96375.38;4846540;29;20665;-79
2022/11/12 04:34:42;;;;;;;0.50;0.50;;;19.50;62.50;;;19.44;46.06;96368.66;4847195;29;20311;-80
2022/11/12 04:37:43;;;;;;;0.50;0.50;;;19.50;62.50;;;19.43;46.15;96370.50;4844119;29;20681;-80
2022/11/12 04:46:39;;;;;;;0.40;0.40;;;19.50;62.50;;;19.44;45.81;96376.63;4835234;29;20618;-80
2022/11/12 04:49:25;;;;;;;0.50;0.50;;;19.50;62.50;;;19.44;45.88;96379.28;4846604;29;20530;-80
2022/11/12 04:52:11;;;;;;;0.40;0.40;;;19.50;62.50;;;19.43;46.09;96375.00;4845544;29;20198;-80
2022/11/12 04:54:57;;;;;;;0.50;0.50;;;19.50;62.60;;;19.36;45.90;96362.53;4819924;29;20198;-80
2022/11/12 04:57:43;;;;;;;0.50;0.50;;;19.50;62.60;;;19.43;45.85;96367.84;4833187;29;20279;-80
2022/11/12 05:00:28;;;;;;;0.40;0.40;;;19.50;62.60;;;19.43;46.05;96367.00;4845540;29;20198;-80
2022/11/12 05:03:14;;;;;;;0.50;0.50;;;19.50;62.50;;;19.45;45.88;96373.75;4832839;29;20218;-80
2022/11/12 05:06:50;;;;;;;0.50;0.50;;;19.50;62.60;;;19.44;46.31;96372.09;4845640;29;20591;-80
2022/11/12 05:09:12;;;;;;;0.40;0.40;;;19.50;62.50;;;19.44;46.28;96373.97;4845443;29;20304;-80
2022/11/12 05:11:57;;;;;;;0.60;0.60;;;19.50;62.50;;;19.41;45.70;96369.88;4832624;29;20197;-80
2022/11/12 05:14:43;;;;;;;0.60;0.60;;;19.50;62.60;;;19.42;45.85;96373.34;4832310;29;20206;-80
2022/11/12 05:17:29;;;;;;;0.50;0.50;;;19.50;62.50;;;19.44;46.06;96373.97;4832267;29;20536;-80
2022/11/12 05:20:16;;;;;;;0.50;0.50;;;19.50;62.50;;;19.44;45.65;96380.09;4832424;29;20210;-80
2022/11/12 05:23:01;;;;;;;0.50;0.50;;;19.50;62.50;;;19.39;46.21;96368.47;4832486;29;20224;-80
2022/11/12 05:25:52;;;;;;;0.40;0.40;;;19.50;62.50;;;19.43;45.81;96380.31;4833185;29;20668;-80
2022/11/12 05:28:37;;;;;;;0.50;0.50;;;19.50;62.50;;;19.43;46.09;96372.31;4831949;29;20597;-80
2022/11/12 05:31:23;;;;;;;0.50;0.50;;;19.50;62.50;;;19.40;46.04;96370.09;4819277;29;20213;-80
2022/11/12 05:34:09;;;;;;;0.50;0.50;;;19.50;62.50;;;19.39;46.20;96369.28;4845543;29;20691;-80
2022/11/12 05:36:55;;;;;;;0.60;0.60;;;19.50;62.60;;;19.40;45.91;96367.44;4844670;29;20237;-80
2022/11/12 05:39:41;;;;;;;0.60;0.60;;;19.50;62.50;;;19.44;45.84;96389.94;4845529;29;20251;-80
2022/11/12 05:42:27;;;;;;;0.50;0.50;;;19.50;62.50;;;19.45;46.16;96397.69;4832174;29;20275;-80
2022/11/12 05:45:13;;;;;;;0.50;0.50;;;19.50;62.50;;;19.38;45.99;96394.25;4832059;29;20227;-80
2022/11/12 05:47:58;;;;;;;0.40;0.40;;;19.50;62.50;;;19.39;45.53;96389.75;4845187;29;20205;-78
2022/11/12 05:50:44;;;;;;;0.40;0.40;;;19.50;62.50;;;19.41;45.83;96400.97;4845563;29;20279;-78
2022/11/12 05:53:50;;;;;;;0.60;0.60;;;19.50;62.50;;;19.41;46.28;96406.31;4834430;29;20673;-80
2022/11/12 05:56:36;;;;;;;0.57;0.57;;;19.50;62.50;;;19.37;45.90;96400.59;4832429;29;20223;-78
2022/11/12 05:59:23;;;;;;;0.50;0.50;;;19.50;62.40;;;19.38;45.65;96402.22;4819588;29;20198;-78
2022/11/12 06:02:08;;;;;;;0.50;0.50;;;19.50;62.40;;;19.41;46.05;96399.16;4832047;29;20224;-79
2022/11/12 06:04:54;;;;;;;0.50;0.50;;;19.50;62.40;;;19.38;45.92;96401.41;4831867;29;20209;-79
2022/11/12 06:07:40;;;;;;;0.60;0.60;;;19.50;62.40;;;19.41;45.73;96406.31;4831648;29;20266;-79
2022/11/12 06:10:26;;;;;;;0.40;0.40;;;19.50;62.50;;;19.35;45.95;96397.34;4844321;29;20206;-78
2022/11/12 06:13:15;;;;;;;0.50;0.50;;;19.50;62.50;;;19.41;45.56;96404.47;4844026;29;20225;-80
2022/11/12 06:16:01;;;;;;;0.60;0.60;;;19.50;62.50;;;19.40;46.10;96412.69;4832116;29;20199;-80
2022/11/12 06:18:46;;;;;;;0.50;0.50;;;19.50;62.40;;;19.40;46.07;96415.34;4844210;29;20206;-80
2022/11/12 06:21:32;;;;;;;0.50;0.50;;;19.50;62.50;;;19.40;46.03;96418.00;4844526;29;20327;-80
2022/11/12 06:24:18;;;;;;;0.50;0.50;;;19.50;62.50;;;19.38;45.70;96417.38;4831815;29;20198;-79
2022/11/12 06:27:03;;;;;;;0.60;0.60;;;19.50;62.50;;;19.39;45.95;96427.81;4844018;29;20197;-79
2022/11/12 06:29:49;;;;;;;0.50;0.50;;;19.50;62.50;;;19.37;45.72;96419.22;4844139;29;20339;-80
2022/11/12 06:32:35;;;;;;;0.50;0.50;;;19.50;62.50;;;19.41;45.78;96433.75;4844397;29;20193;-79
2022/11/12 06:35:21;;;;;;;0.57;0.57;;;19.50;62.50;;;19.40;46.03;96439.28;4831850;29;20267;-80
2022/11/12 06:38:07;;;;;;;0.52;0.52;;;19.50;62.50;;;19.41;46.17;96438.22;4836898;29;20733;-80
2022/11/12 06:40:53;;;;;;;0.43;0.43;;;19.40;62.50;;;19.40;46.05;96442.75;4863114;29;20319;-79
2022/11/12 06:43:40;;;;;;;0.50;0.50;;;19.50;63.40;;;19.38;46.14;96436.81;4849434;29;20222;-79
2022/11/12 06:46:26;;;;;;;0.50;0.50;;;19.40;62.50;;;19.35;46.10;96440.72;4863003;29;20646;-80
2022/11/12 06:49:12;;;;;;;0.40;0.40;;;19.40;62.50;;;19.37;45.86;96437.84;4849222;29;20193;-79
2022/11/12 06:51:57;;;;;;;0.40;0.40;;;19.50;62.50;;;19.39;46.15;96445.63;4862458;29;20198;-80
2022/11/12 06:54:43;;;;;;;0.40;0.40;;;19.50;62.50;;;19.40;45.99;96449.94;4849356;29;20691;-80
2022/11/12 06:57:29;;;;;;;0.50;0.50;;;19.40;62.40;;;19.39;45.59;96446.44;4837266;29;20270;-80
2022/11/12 07:00:16;;;;;;;0.40;0.40;;;19.40;62.40;;;19.38;45.88;96450.13;4836659;29;20200;-79
2022/11/12 07:03:07;;;;;;;0.50;0.50;;;19.50;62.50;;;19.40;46.22;96444.59;4862583;29;20571;-78
2022/11/12 07:05:52;;;;;;;0.50;0.50;;;19.50;62.50;;;19.35;45.99;96445.22;4840608;29;20212;-79
2022/11/12 07:08:39;;;;;;;0.50;0.50;;;19.40;62.40;;;19.36;45.67;96442.34;4839945;29;20208;-79
2022/11/12 07:11:25;;;;;;;0.60;0.60;;;19.40;62.50;;;19.35;45.82;96443.38;4852964;29;20636;-79
2022/11/12 07:14:11;;;;;;;0.40;0.40;;;19.50;62.50;;;19.40;46.17;96458.72;4840447;29;20224;-80
2022/11/12 07:16:57;;;;;;;0.50;0.50;;;19.40;62.40;;;19.39;45.92;96451.75;4853117;29;20198;-78
2022/11/12 07:19:42;;;;;;;0.50;0.50;;;19.50;62.50;;;19.38;45.74;96442.13;4852837;29;20201;-80
2022/11/12 07:22:28;;;;;;;0.40;0.40;;;19.50;62.50;;;19.41;46.01;96449.72;4867391;29;20294;-80
2022/11/12 07:25:17;;;;;;;0.50;0.50;;;19.50;62.60;;;19.40;45.95;96439.28;4840227;29;20667;-80
2022/11/12 07:28:04;;;;;;;0.40;0.40;;;19.50;62.50;;;19.41;46.01;96439.06;4866866;29;20217;-80
2022/11/12 07:31:02;;;;;;;0.43;0.43;;;19.50;62.50;;;19.41;45.91;96449.72;4852602;29;20205;-80
2022/11/12 07:33:48;;;;;;;0.40;0.40;;;19.40;62.40;;;19.35;46.38;96438.06;4852846;29;20273;-80
2022/11/12 07:36:34;;;;;;;0.40;0.40;;;19.50;62.50;;;19.33;45.80;96431.31;4839638;29;20244;-80
2022/11/12 07:39:20;;;;;;;0.50;0.50;;;19.50;62.50;;;19.40;46.02;96453.41;4839879;29;20322;-80
2022/11/12 07:42:06;;;;;;;0.50;0.50;;;19.40;62.50;;;19.42;45.59;96453.19;4840295;29;20197;-79
2022/11/12 07:44:52;;;;;;;0.50;0.50;;;19.50;62.50;;;19.40;45.94;96448.06;4852274;29;20201;-80
2022/11/12 07:47:38;;;;;;;0.50;0.50;;;19.50;62.60;;;19.44;45.81;96451.13;4852246;29;20213;-80
2022/11/12 07:50:24;;;;;;;0.50;0.50;;;19.40;62.50;;;19.44;45.55;96459.91;4866202;29;20201;-78
2022/11/12 07:53:10;;;;;;;0.50;0.50;;;19.50;62.60;;;19.46;45.77;96449.09;4852367;29;20329;-78
2022/11/12 07:55:58;;;;;;;0.57;0.57;;;19.50;62.50;;;19.46;46.03;96447.22;4866184;29;20282;-78
2022/11/12 07:58:44;;;;;;;0.30;0.30;;;19.50;62.60;;;19.46;45.89;96444.56;4839422;29;20657;-80
2022/11/12 08:01:39;;;;;;;0.50;0.50;;;19.50;62.60;;;19.47;46.14;96440.06;4852242;29;20262;-80
2022/11/12 08:04:25;;;;;;;0.50;0.50;;;19.50;62.50;;;19.45;46.14;96442.94;4852278;29;20354;-81
2022/11/12 08:07:11;;;;;;;0.50;0.50;;;19.50;62.50;;;19.49;45.70;96454.81;4852537;29;20529;-80
2022/11/12 08:09:58;;;;;;;0.50;0.50;;;19.50;62.50;;;19.44;45.57;96437.81;4852004;29;20205;-79
2022/11/12 08:12:44;;;;;;;0.50;0.50;;;19.50;62.60;;;19.50;45.84;96442.31;4839481;29;20258;-80
2022/11/12 08:15:30;;;;;;;0.50;0.50;;;19.50;62.60;;;19.52;46.10;96450.91;4851415;29;20327;-79
2022/11/12 08:18:16;;;;;;;0.43;0.43;;;19.50;62.50;;;19.48;45.81;96447.84;4852327;29;20216;-79
2022/11/12 08:21:06;;;;;;;0.50;0.50;;;19.50;62.50;;;19.54;46.12;96450.69;4838787;29;20193;-79
2022/11/12 08:23:56;;;;;;;0.50;0.50;;;19.50;62.50;;;19.49;45.92;96443.31;4839290;29;20201;-79
2022/11/12 08:26:42;;;;;;;0.50;0.50;;;19.60;62.60;;;19.55;45.73;96452.31;4838842;29;20193;-80
2022/11/12 08:29:28;;;;;;;0.50;0.50;;;19.60;62.50;;;19.57;45.73;96452.94;4851452;29;20210;-79
2022/11/12 08:32:14;;;;;;;0.50;0.50;;;19.60;62.50;;;19.53;45.97;96447.22;4851655;29;20206;-80
2022/11/12 08:35:00;;;;;;;0.40;0.40;;;19.60;62.50;;;19.55;45.58;96444.34;4851440;29;20244;-79
2022/11/12 08:37:46;;;;;;;0.50;0.50;;;19.60;62.50;;;19.58;46.12;96446.56;4852140;29;20198;-79
2022/11/12 08:40:32;;;;;;;0.55;0.55;;;19.60;62.50;;;19.59;45.58;96443.72;4851540;29;20202;-79
2022/11/12 08:43:19;;;;;;;0.50;0.50;;;19.60;62.50;;;19.60;45.48;96441.84;4838754;29;20534;-80
2022/11/12 08:46:05;;;;;;;0.50;0.50;;;19.60;62.50;;;19.57;45.83;96434.31;4838438;29;20196;-78
2022/11/12 08:48:51;;;;;;;0.50;0.50;;;19.60;62.40;;;19.61;45.60;96443.50;4851256;29;20222;-78
2022/11/12 08:51:37;;;;;;;0.40;0.40;;;19.60;62.50;;;19.56;46.07;96430.81;4864885;29;20205;-78
2022/11/12 08:54:23;;;;;;;0.50;0.50;;;19.60;62.40;;;19.58;45.77;96436.75;4838223;29;20221;-80
2022/11/12 08:57:09;;;;;;;0.40;0.40;;;19.60;62.40;;;19.60;45.85;96442.66;4838767;29;20197;-79
2022/11/12 08:59:55;;;;;;;0.50;0.50;;;19.60;62.40;;;19.63;45.87;96438.78;4838500;29;20202;-80
2022/11/12 09:02:40;;;;;;;0.50;0.50;;;19.70;62.50;;;19.62;45.76;96440.63;4851201;29;20193;-79
2022/11/12 09:05:27;;;;;;;0.50;0.50;;;19.60;62.40;;;19.63;45.79;96442.25;4838296;29;20518;-80
2022/11/12 09:08:18;;;;;;;0.50;0.50;;;19.70;62.40;;;19.62;45.71;96445.94;4850846;29;20205;-79
2022/11/12 09:11:04;;;;;;;0.50;0.50;;;19.70;62.40;;;19.65;46.00;96439.38;4826095;29;20194;-80
2022/11/12 09:13:52;;;;;;;0.40;0.40;;;19.70;62.40;;;19.62;45.85;96437.16;4838193;29;20281;-80
2022/11/12 09:16:38;;;;;;;0.40;0.40;;;19.70;62.40;;;19.64;45.45;96438.56;4851054;29;20289;-80
2022/11/12 09:19:24;;;;;;;0.50;0.50;;;19.70;62.40;;;19.61;45.55;96440.84;4850861;29;20197;-78
2022/11/12 09:22:09;;;;;;;0.40;0.40;;;19.70;62.40;;;19.66;46.04;96446.34;4864475;29;20254;-79
2022/11/12 09:24:55;;;;;;;0.40;0.40;;;19.70;62.30;;;19.66;45.97;96457.81;4837946;29;20204;-79
2022/11/12 09:27:40;;;;;;;0.45;0.45;;;19.70;62.40;;;19.68;45.95;96463.72;4837346;29;20515;-79
2022/11/12 09:30:33;;;;;;;0.50;0.50;;;19.70;62.30;;;19.68;45.85;96465.59;4851375;29;20190;-80
2022/11/12 09:33:31;;;;;;;0.52;0.52;;;19.70;62.30;;;19.70;45.94;96465.38;4848977;29;20769;-78
2022/11/12 09:36:17;;;;;;;0.43;0.43;;;19.70;62.30;;;19.72;45.50;96468.63;4845004;29;20705;-79
2022/11/12 09:39:03;;;;;;;0.45;0.45;;;19.70;62.30;;;19.72;45.60;96464.13;4841748;29;20322;-77
2022/11/12 09:41:48;;;;;;;0.50;0.50;;;19.70;62.40;;;19.70;46.23;96455.56;4850283;29;20197;-82
2022/11/12 09:44:38;;;;;;;0.50;0.50;;;19.80;62.50;;;19.68;45.53;96455.75;4863372;29;20638;-82
2022/11/12 09:47:33;;;;;;;0.50;0.50;;;19.70;62.40;;;19.77;45.77;96466.16;4863479;29;20205;-82
2022/11/12 09:50:34;;;;;;;0.40;0.40;;;19.80;62.40;;;19.77;45.56;96464.28;4863820;29;20199;-81
2022/11/12 09:54:01;;;;;;;0.50;0.50;;;19.80;62.30;;;19.72;46.45;96461.47;4850457;29;20303;-81
2022/11/12 09:56:48;;;;;;;0.50;0.50;;;19.80;62.40;;;19.78;45.62;96460.63;4850871;29;20649;-80
2022/11/12 09:59:41;;;;;;;0.50;0.50;;;19.80;62.30;;;19.80;45.61;96466.56;4850418;29;20204;-80
2022/11/12 10:02:47;;;;;;;0.45;0.45;;;19.80;62.00;;;19.78;45.46;96465.13;4837228;29;20189;-80
2022/11/12 10:05:55;;;;;;;0.50;0.50;;;19.80;61.70;;;19.75;45.12;96468.19;4850394;29;20293;-81
2022/11/12 10:09:04;;;;;;;0.40;0.40;;;19.80;61.50;;;19.68;45.31;96463.72;4863003;29;20245;-81
2022/11/12 10:12:32;;;;;;;0.40;0.40;;;19.80;61.40;;;19.68;45.56;96469.06;4863018;29;20311;-81
2022/11/12 10:19:21;;;;;;;0.40;0.40;;;19.80;61.30;;;19.60;45.32;96471.13;4863818;29;20335;-80
2022/11/12 10:22:43;;;;;;;0.50;0.50;;;19.80;61.20;;;19.51;45.02;96455.41;4850499;29;20198;-81
2022/11/12 10:25:31;;;;;;;0.60;0.60;;;19.80;61.30;;;19.57;45.41;96471.56;4826928;29;20221;-81
2022/11/12 10:28:47;;;;;;;0.50;0.50;;;19.80;61.30;;;19.55;44.88;96463.78;4850088;29;20217;-81
2022/11/12 10:31:33;;;;;;;0.50;0.50;;;19.70;61.00;;;19.55;45.16;96453.13;4835945;29;20552;-80
2022/11/12 10:34:22;;;;;;;0.50;0.50;;;19.70;61.10;;;19.56;44.97;96456.63;4851433;29;20225;-80
2022/11/12 10:37:28;;;;;;;0.40;0.40;;;19.70;61.00;;;19.40;44.48;96432.09;4848091;29;20574;-80
2022/11/12 10:40:20;;;;;;;0.40;0.40;;;19.70;61.00;;;19.53;44.57;96457.88;4815632;29;20597;-80
2022/11/12 10:43:15;;;;;;;0.50;0.50;;;19.60;60.80;;;19.54;44.53;96442.69;4813457;29;20257;-80
2022/11/12 10:46:25;;;;;;;0.55;0.55;;;19.60;61.00;;;19.51;44.58;96447.41;4826169;29;20204;-80
2022/11/12 10:49:14;;;;;;;0.40;0.40;;;19.60;61.00;;;19.52;44.93;96441.06;4800601;29;20329;-81
2022/11/12 10:51:59;;;;;;;0.50;0.50;;;19.60;61.00;;;19.52;44.50;96442.91;4826559;29;20203;-81
2022/11/12 10:54:45;;;;;;;0.50;0.50;;;19.60;61.10;;;19.50;44.97;96436.97;4812754;29;20252;-80
2022/11/12 10:57:38;;;;;;;0.50;0.50;;;19.60;61.20;;;19.51;44.39;96436.75;4822679;29;20674;-80
2022/11/12 11:00:24;;;;;;;0.50;0.50;;;19.60;61.20;;;19.53;44.58;96433.91;4800029;29;20267;-80
2022/11/12 11:03:55;;;;;;;0.50;0.50;;;19.60;61.20;;;19.52;44.64;96446.38;4816656;29;20210;-81
2022/11/12 11:06:40;;;;;;;0.50;0.50;;;19.60;61.10;;;19.52;44.58;96441.06;4831153;29;20539;-81
2022/11/12 11:09:29;;;;;;;0.50;0.50;;;19.60;61.20;;;19.55;44.94;96439.03;4813450;29;20354;-80
2022/11/12 11:12:30;;;;;;;0.50;0.50;;;19.60;61.10;;;19.48;44.15;96431.03;4813066;29;20207;-76
2022/11/12 11:15:23;;;;;;;0.60;0.60;;;19.60;61.00;;;19.51;44.59;96444.75;4825776;29;20214;-78
2022/11/12 11:18:13;;;;;;;0.40;0.40;;;19.60;60.90;;;19.51;44.84;96443.94;4812671;29;20195;-76
2022/11/12 11:21:30;;;;;;;0.55;0.55;;;19.60;60.90;;;19.48;44.50;96447.00;4825237;29;20195;-76
2022/11/12 11:24:40;;;;;;;0.40;0.40;;;19.60;61.00;;;19.49;44.73;96449.47;4837107;29;20214;-76
2022/11/12 11:27:35;;;;;;;0.50;0.50;;;19.60;60.90;;;19.49;44.35;96448.66;4825074;29;20207;-76
2022/11/12 11:30:21;;;;;;;0.50;0.50;;;19.60;60.90;;;19.50;44.44;96452.94;4840849;29;20290;-77
2022/11/12 11:33:31;;;;;;;0.40;0.40;;;19.60;61.00;;;19.50;44.12;96445.78;4826578;29;20195;-76
2022/11/12 11:37:20;;;;;;;0.45;0.45;;;19.60;60.90;;;19.47;44.65;96448.88;4812245;29;20573;-76
2022/11/12 11:40:28;;;;;;;0.50;0.50;;;19.60;61.00;;;19.47;44.74;96443.53;4825938;29;20673;-76
2022/11/12 11:43:38;;;;;;;0.50;0.50;;;19.60;60.90;;;19.48;44.57;96441.69;4825476;29;20206;-76
2022/11/12 11:47:02;;;;;;;0.50;0.50;;;19.60;61.00;;;19.47;44.39;96440.88;4812069;29;20271;-76
2022/11/12 11:50:37;;;;;;;0.50;0.50;;;19.60;61.00;;;19.46;44.50;96447.22;4816842;29;20202;-76
2022/11/12 11:53:49;;;;;;;0.40;0.40;;;19.60;60.90;;;19.42;44.66;96429.22;4795644;29;20238;-76
2022/11/12 11:56:43;;;;;;;0.50;0.50;;;19.60;60.90;;;19.43;44.06;96425.53;4828385;29;20202;-76
2022/11/12 12:00:08;;;;;;;0.50;0.50;;;19.50;60.80;;;19.45;44.50;96426.16;4828275;29;20203;-76
2022/11/12 12:03:19;;;;;;;0.50;0.50;;;19.50;61.80;;;19.42;44.53;96422.09;4815808;29;20207;-76
2022/11/12 12:06:23;;;;;;;0.40;0.40;;;19.50;60.90;;;19.44;44.60;96419.19;4819984;29;20227;-76
2022/11/12 12:09:37;;;;;;;0.50;0.50;;;19.50;60.90;;;19.43;44.42;96421.06;4834331;29;20536;-76
2022/11/12 12:12:42;;;;;;;0.50;0.50;;;19.50;61.00;;;19.45;44.52;96411.00;4846673;29;20566;-78
2022/11/12 12:15:44;;;;;;;0.52;0.52;;;19.50;60.90;;;19.40;44.36;96412.69;4846396;29;20742;-76
2022/11/12 12:19:09;;;;;;;0.40;0.40;;;19.50;60.90;;;19.35;44.32;96403.47;4846512;29;20701;-76
2022/11/12 12:21:58;;;;;;;0.50;0.50;;;19.50;60.90;;;19.40;44.70;96400.19;4847842;29;20283;-77